Time;durP1;ratioP1;P1;durP2;ratioP2;P2;SDS_P1;SDS_P2;PMS_P1;PMS_P2;Temp;Humidity;BMP_temperature;BMP_pressure;BME280_temperature;BME280_humidity;BME280_pressure;Samples;Min_cycle;Max_cycle;Signal;HPM_P1;HPM_P2
2023/10/06 00:00:42;;;;;;;11.30;3.17;;;;;;;;;;5073576;28;20025;-71
2023/10/06 00:03:14;;;;;;;7.97;2.65;;;;;;;;;;5084746;28;20490;-71
2023/10/06 00:05:44;;;;;;;11.57;3.38;;;;;;;;;;5092758;28;20024;-71
2023/10/06 00:08:17;;;;;;;13.90;3.22;;;;;;;;;;5076829;28;20042;-71
2023/10/06 00:10:45;;;;;;;8.20;3.13;;;;;;;;;;5072634;28;20021;-71
2023/10/06 00:13:29;;;;;;;12.57;3.65;;;;;;;;;;5072941;28;20113;-71
2023/10/06 00:15:55;;;;;;;24.20;4.10;;;;;;;;;;5072896;28;20025;-71
2023/10/06 00:18:25;;;;;;;14.13;3.50;;;;;;;;;;5073135;28;20027;-70
2023/10/06 00:20:56;;;;;;;11.98;3.22;;;;;;;;;;5069760;28;20032;-71
2023/10/06 00:23:22;;;;;;;14.90;3.70;;;;;;;;;;5075320;28;20516;-71
2023/10/06 00:25:54;;;;;;;11.48;3.20;;;;;;;;;;5074426;28;20108;-71
2023/10/06 00:28:27;;;;;;;17.27;3.97;;;;;;;;;;5071900;28;20495;-71
2023/10/06 00:30:57;;;;;;;13.90;3.13;;;;;;;;;;5073130;28;20020;-71
2023/10/06 00:33:26;;;;;;;18.05;5.45;;;;;;;;;;5073590;28;20020;-71
2023/10/06 00:35:51;;;;;;;14.35;4.65;;;;;;;;;;5071951;28;20477;-71
2023/10/06 00:38:20;;;;;;;11.68;4.18;;;;;;;;;;5073314;28;20103;-71
2023/10/06 00:40:53;;;;;;;9.43;3.95;;;;;;;;;;5071998;28;20027;-71
2023/10/06 00:43:43;;;;;;;12.77;3.45;;;;;;;;;;5072845;28;20103;-71
2023/10/06 00:46:16;;;;;;;12.07;3.92;;;;;;;;;;5073734;28;20413;-71
2023/10/06 00:48:44;;;;;;;22.00;4.00;;;;;;;;;;5073208;28;20029;-71
2023/10/06 00:51:22;;;;;;;16.80;5.13;;;;;;;;;;5070960;28;20023;-71
2023/10/06 00:53:56;;;;;;;13.05;4.90;;;;;;;;;;5072999;28;20495;-71
2023/10/06 00:56:25;;;;;;;15.32;4.82;;;;;;;;;;5055735;28;20025;-71
2023/10/06 00:58:54;;;;;;;15.98;4.63;;;;;;;;;;5070773;28;20516;-71
2023/10/06 01:01:21;;;;;;;21.10;5.20;;;;;;;;;;5071896;28;20024;-71
2023/10/06 01:06:45;;;;;;;20.15;4.85;;;;;;;;;;5059477;28;20100;-71
2023/10/06 01:11:44;;;;;;;22.52;4.32;;;;;;;;;;5071804;28;20382;-71
2023/10/06 01:14:09;;;;;;;14.07;4.22;;;;;;;;;;5073194;28;20020;-71
2023/10/06 01:16:35;;;;;;;11.07;3.08;;;;;;;;;;5071952;28;20364;-71
2023/10/06 01:19:25;;;;;;;21.50;5.13;;;;;;;;;;5071999;28;20115;-71
2023/10/06 01:21:54;;;;;;;14.45;4.97;;;;;;;;;;5073431;28;20120;-71
2023/10/06 01:24:29;;;;;;;19.75;4.05;;;;;;;;;;5072713;28;20127;-71
2023/10/06 01:26:59;;;;;;;15.27;4.65;;;;;;;;;;5073186;28;20024;-71
2023/10/06 01:29:29;;;;;;;20.65;5.22;;;;;;;;;;5071639;28;20025;-71
2023/10/06 01:31:54;;;;;;;18.85;3.92;;;;;;;;;;5071895;28;20044;-71
2023/10/06 01:34:20;;;;;;;18.67;4.10;;;;;;;;;;5071243;28;20048;-71
2023/10/06 01:36:54;;;;;;;17.85;4.30;;;;;;;;;;5072961;28;20509;-71
2023/10/06 01:39:22;;;;;;;18.77;5.30;;;;;;;;;;5072187;28;20475;-71
2023/10/06 01:41:48;;;;;;;15.02;5.32;;;;;;;;;;5072006;28;20119;-71
2023/10/06 01:44:17;;;;;;;15.02;4.35;;;;;;;;;;5072924;28;20060;-71
2023/10/06 01:46:44;;;;;;;27.10;4.57;;;;;;;;;;5073378;28;20040;-71
2023/10/06 01:49:14;;;;;;;17.83;3.22;;;;;;;;;;5071360;28;20394;-71
2023/10/06 01:51:40;;;;;;;15.88;4.22;;;;;;;;;;5071757;28;20421;-71
2023/10/06 01:54:12;;;;;;;17.77;5.75;;;;;;;;;;5071478;28;20021;-71
2023/10/06 01:56:47;;;;;;;17.63;4.60;;;;;;;;;;5071716;28;20027;-71
2023/10/06 01:59:14;;;;;;;15.48;4.53;;;;;;;;;;5073400;28;20071;-71
2023/10/06 02:01:41;;;;;;;12.13;4.38;;;;;;;;;;5075157;28;20024;-71
2023/10/06 02:04:10;;;;;;;20.70;5.07;;;;;;;;;;5076238;28;20024;-71
2023/10/06 02:06:38;;;;;;;18.48;5.40;;;;;;;;;;5075098;28;20074;-71
2023/10/06 02:09:18;;;;;;;17.98;4.75;;;;;;;;;;5076348;28;20467;-71
2023/10/06 02:11:44;;;;;;;19.00;5.32;;;;;;;;;;5074946;28;20050;-70
2023/10/06 02:14:11;;;;;;;24.80;5.97;;;;;;;;;;5075144;28;20028;-70
2023/10/06 02:16:39;;;;;;;18.23;5.07;;;;;;;;;;5075052;28;20393;-71
2023/10/06 02:19:08;;;;;;;19.63;4.70;;;;;;;;;;5075154;28;20028;-71
2023/10/06 02:21:35;;;;;;;20.80;5.50;;;;;;;;;;5075474;28;20116;-70
2023/10/06 02:24:03;;;;;;;19.58;6.68;;;;;;;;;;5075844;28;20028;-70
2023/10/06 02:26:28;;;;;;;21.50;5.70;;;;;;;;;;5076107;28;20035;-70
2023/10/06 02:28:55;;;;;;;16.95;5.35;;;;;;;;;;5075947;28;20024;-70
2023/10/06 02:31:21;;;;;;;20.52;4.72;;;;;;;;;;5074780;28;20024;-70
2023/10/06 02:33:50;;;;;;;18.35;5.53;;;;;;;;;;5079403;28;20405;-70
2023/10/06 02:36:18;;;;;;;18.92;5.35;;;;;;;;;;5081550;28;20099;-70
2023/10/06 02:38:46;;;;;;;20.17;5.97;;;;;;;;;;5079572;28;20022;-70
2023/10/06 02:41:19;;;;;;;19.10;5.15;;;;;;;;;;5086203;28;20029;-70
2023/10/06 02:43:46;;;;;;;12.73;4.13;;;;;;;;;;5074559;28;20449;-70
2023/10/06 02:46:12;;;;;;;14.88;4.43;;;;;;;;;;5074740;28;20024;-70
2023/10/06 02:48:37;;;;;;;12.65;4.72;;;;;;;;;;5075861;28;20039;-70
2023/10/06 02:51:06;;;;;;;13.18;4.88;;;;;;;;;;5075600;28;20028;-70
2023/10/06 02:53:35;;;;;;;20.45;6.25;;;;;;;;;;5074890;28;20112;-70
2023/10/06 02:56:07;;;;;;;14.80;4.50;;;;;;;;;;5074321;28;20097;-70
2023/10/06 02:58:33;;;;;;;18.38;5.32;;;;;;;;;;5074408;28;20102;-70
2023/10/06 03:00:59;;;;;;;16.00;4.97;;;;;;;;;;5074925;28;20475;-70
2023/10/06 03:03:27;;;;;;;23.90;5.88;;;;;;;;;;5075018;28;20031;-70
2023/10/06 03:05:56;;;;;;;16.00;5.30;;;;;;;;;;5074103;28;20604;-70
2023/10/06 03:08:26;;;;;;;18.45;5.40;;;;;;;;;;5074964;28;20103;-70
2023/10/06 03:10:51;;;;;;;14.73;5.10;;;;;;;;;;5073783;28;20501;-70
2023/10/06 03:13:24;;;;;;;19.02;5.30;;;;;;;;;;5074388;28;20025;-70
2023/10/06 03:15:50;;;;;;;17.42;4.93;;;;;;;;;;5073307;28;20017;-70
2023/10/06 03:18:16;;;;;;;13.02;4.45;;;;;;;;;;5056017;28;20498;-70
2023/10/06 03:20:49;;;;;;;16.27;5.03;;;;;;;;;;5053204;28;20541;-70
2023/10/06 03:23:26;;;;;;;11.13;5.13;;;;;;;;;;5053591;28;20108;-70
2023/10/06 03:25:53;;;;;;;19.13;4.78;;;;;;;;;;5054492;28;20025;-71
2023/10/06 03:28:20;;;;;;;11.18;5.40;;;;;;;;;;5069661;28;20053;-71
2023/10/06 03:30:49;;;;;;;22.25;6.20;;;;;;;;;;5070106;28;20021;-71
2023/10/06 03:33:15;;;;;;;13.38;5.30;;;;;;;;;;5066989;28;20497;-71
2023/10/06 03:35:54;;;;;;;23.90;5.57;;;;;;;;;;5079068;28;20077;-71
2023/10/06 03:40:53;;;;;;;19.90;5.22;;;;;;;;;;5073895;28;20028;-71
2023/10/06 03:43:36;;;;;;;17.27;5.35;;;;;;;;;;5089112;28;20016;-71
2023/10/06 03:46:02;;;;;;;21.75;5.40;;;;;;;;;;5073423;28;20608;-71
2023/10/06 03:48:29;;;;;;;16.45;4.88;;;;;;;;;;5074090;28;20526;-71
2023/10/06 03:50:57;;;;;;;15.60;5.18;;;;;;;;;;5074172;28;20024;-71
2023/10/06 03:53:29;;;;;;;18.35;5.32;;;;;;;;;;5073593;28;20024;-71
2023/10/06 03:55:56;;;;;;;17.02;5.38;;;;;;;;;;5055949;28;20021;-71
2023/10/06 03:58:25;;;;;;;26.02;5.57;;;;;;;;;;5053894;28;20036;-71
2023/10/06 04:00:51;;;;;;;19.77;5.35;;;;;;;;;;5070124;28;20021;-71
2023/10/06 04:03:17;;;;;;;20.35;5.15;;;;;;;;;;5073661;28;20089;-71
2023/10/06 04:05:48;;;;;;;21.48;5.60;;;;;;;;;;5072020;28;20025;-71
2023/10/06 04:08:16;;;;;;;16.95;5.82;;;;;;;;;;5073823;28;20028;-71
2023/10/06 04:10:42;;;;;;;12.55;4.65;;;;;;;;;;5073007;28;20028;-71
2023/10/06 04:13:11;;;;;;;11.50;5.22;;;;;;;;;;5074066;28;20027;-71
2023/10/06 04:15:43;;;;;;;11.98;4.72;;;;;;;;;;5072772;28;20390;-71
2023/10/06 04:18:12;;;;;;;24.20;7.05;;;;;;;;;;5074115;28;20027;-71
2023/10/06 04:20:41;;;;;;;15.65;6.05;;;;;;;;;;5076322;28;20039;-71
2023/10/06 04:23:11;;;;;;;16.30;6.63;;;;;;;;;;5092720;28;20020;-71
2023/10/06 04:25:40;;;;;;;17.88;5.95;;;;;;;;;;5092760;28;20016;-71
2023/10/06 04:28:13;;;;;;;17.20;5.82;;;;;;;;;;5092857;28;20042;-71
2023/10/06 04:30:41;;;;;;;15.07;5.82;;;;;;;;;;5092393;28;20044;-71
2023/10/06 04:33:09;;;;;;;13.07;6.18;;;;;;;;;;5092815;28;20485;-71
2023/10/06 04:35:42;;;;;;;10.27;4.05;;;;;;;;;;5092938;28;20426;-71
2023/10/06 04:38:10;;;;;;;14.93;5.68;;;;;;;;;;5083955;28;20095;-70
2023/10/06 04:40:36;;;;;;;16.35;5.93;;;;;;;;;;5074003;28;20032;-71
2023/10/06 04:43:01;;;;;;;17.65;4.40;;;;;;;;;;5073171;28;20060;-71
2023/10/06 04:45:31;;;;;;;15.10;5.53;;;;;;;;;;5074408;28;20077;-71
2023/10/06 04:47:56;;;;;;;15.35;5.65;;;;;;;;;;5073119;28;20554;-71
2023/10/06 04:50:22;;;;;;;16.52;5.13;;;;;;;;;;5075788;28;20102;-71
2023/10/06 04:52:48;;;;;;;13.23;4.18;;;;;;;;;;5073135;28;20020;-71
2023/10/06 04:55:13;;;;;;;15.27;5.55;;;;;;;;;;5071850;28;20024;-71
2023/10/06 04:57:42;;;;;;;18.40;6.50;;;;;;;;;;5055177;28;20028;-71
2023/10/06 05:00:18;;;;;;;13.13;4.50;;;;;;;;;;5052476;28;20024;-70
2023/10/06 05:02:44;;;;;;;14.25;4.75;;;;;;;;;;5052148;28;20135;-71
2023/10/06 05:05:19;;;;;;;16.25;4.50;;;;;;;;;;5071830;28;20103;-71
2023/10/06 05:07:48;;;;;;;11.57;3.78;;;;;;;;;;5072102;28;20024;-71
2023/10/06 05:10:14;;;;;;;16.42;4.07;;;;;;;;;;5059032;28;20109;-71
2023/10/06 05:12:42;;;;;;;12.07;5.35;;;;;;;;;;5052839;28;20521;-71
2023/10/06 05:15:08;;;;;;;12.48;4.40;;;;;;;;;;5056595;28;20021;-71
2023/10/06 05:17:34;;;;;;;22.27;5.72;;;;;;;;;;5072758;28;20074;-70
2023/10/06 05:20:00;;;;;;;12.73;5.25;;;;;;;;;;5073372;28;20036;-70
2023/10/06 05:22:26;;;;;;;12.85;4.68;;;;;;;;;;5057739;28;20025;-71
2023/10/06 05:24:51;;;;;;;16.17;5.90;;;;;;;;;;5051465;28;20078;-71
2023/10/06 05:27:19;;;;;;;17.67;5.60;;;;;;;;;;5057094;28;20046;-71
2023/10/06 05:29:45;;;;;;;12.35;4.95;;;;;;;;;;5089862;28;20024;-71
2023/10/06 05:32:11;;;;;;;15.35;6.57;;;;;;;;;;5089592;28;20043;-71
2023/10/06 05:34:40;;;;;;;14.95;6.55;;;;;;;;;;5064517;28;20475;-71
2023/10/06 05:37:08;;;;;;;18.35;5.43;;;;;;;;;;5055034;28;20073;-70
2023/10/06 05:39:33;;;;;;;14.93;6.32;;;;;;;;;;5057723;28;20029;-71
2023/10/06 05:41:59;;;;;;;15.07;5.88;;;;;;;;;;5055283;28;20036;-71
2023/10/06 05:44:24;;;;;;;22.63;6.38;;;;;;;;;;5064055;28;20051;-71
2023/10/06 05:46:50;;;;;;;20.33;7.45;;;;;;;;;;5096993;28;20073;-71
2023/10/06 05:49:21;;;;;;;19.02;7.25;;;;;;;;;;5096468;28;20478;-71
2023/10/06 05:51:46;;;;;;;17.50;6.88;;;;;;;;;;5074305;28;20100;-71
2023/10/06 05:54:18;;;;;;;16.40;7.25;;;;;;;;;;5075035;28;20507;-71
2023/10/06 05:56:45;;;;;;;19.65;7.57;;;;;;;;;;5076703;28;20044;-71
2023/10/06 05:59:12;;;;;;;20.45;8.75;;;;;;;;;;5076176;28;20032;-71
2023/10/06 06:01:41;;;;;;;15.88;6.72;;;;;;;;;;5078518;28;20508;-71
2023/10/06 06:04:09;;;;;;;24.40;7.18;;;;;;;;;;5075597;28;20036;-71
2023/10/06 06:06:36;;;;;;;17.25;8.15;;;;;;;;;;5074643;28;20016;-71
2023/10/06 06:09:04;;;;;;;21.42;7.03;;;;;;;;;;5063986;28;20103;-71
2023/10/06 06:11:31;;;;;;;23.85;7.70;;;;;;;;;;5055252;28;20043;-70
2023/10/06 06:13:57;;;;;;;23.33;6.80;;;;;;;;;;5062466;28;20024;-71
2023/10/06 06:16:24;;;;;;;19.67;7.43;;;;;;;;;;5057262;28;20490;-71
2023/10/06 06:18:50;;;;;;;20.92;7.50;;;;;;;;;;5055701;28;20029;-71
2023/10/06 06:21:16;;;;;;;20.27;9.02;;;;;;;;;;5082737;28;20107;-71
2023/10/06 06:23:46;;;;;;;21.05;6.18;;;;;;;;;;5095410;28;20540;-71
2023/10/06 06:26:12;;;;;;;20.85;6.22;;;;;;;;;;5090384;28;20024;-71
2023/10/06 06:28:37;;;;;;;13.90;6.13;;;;;;;;;;5075707;28;20536;-71
2023/10/06 06:31:04;;;;;;;18.50;6.25;;;;;;;;;;5074188;28;20031;-71
2023/10/06 06:33:32;;;;;;;20.95;5.60;;;;;;;;;;5075009;28;20099;-71
2023/10/06 06:35:58;;;;;;;13.85;5.03;;;;;;;;;;5075326;28;20021;-71
2023/10/06 06:38:26;;;;;;;12.43;5.82;;;;;;;;;;5057130;28;20022;-71
2023/10/06 06:40:53;;;;;;;16.80;4.72;;;;;;;;;;5076012;28;20423;-71
2023/10/06 06:43:20;;;;;;;16.63;6.25;;;;;;;;;;5076683;28;20044;-71
2023/10/06 06:45:45;;;;;;;13.32;6.03;;;;;;;;;;5077121;28;20024;-71
2023/10/06 06:48:16;;;;;;;19.90;6.05;;;;;;;;;;5073814;28;20023;-71
2023/10/06 06:50:43;;;;;;;17.98;6.43;;;;;;;;;;5078617;28;20108;-71
2023/10/06 06:53:09;;;;;;;15.52;6.55;;;;;;;;;;5073423;28;20021;-71
2023/10/06 06:55:34;;;;;;;21.38;6.72;;;;;;;;;;5074274;28;20584;-71
2023/10/06 06:58:05;;;;;;;16.02;5.35;;;;;;;;;;5056364;28;20032;-71
2023/10/06 07:00:30;;;;;;;20.83;5.97;;;;;;;;;;5053786;28;20057;-71
2023/10/06 07:02:58;;;;;;;19.08;5.70;;;;;;;;;;5054923;28;20078;-71
2023/10/06 07:05:24;;;;;;;14.15;5.38;;;;;;;;;;5069010;28;20036;-71
2023/10/06 07:07:53;;;;;;;15.70;4.70;;;;;;;;;;5073557;28;20020;-71
2023/10/06 07:10:20;;;;;;;14.68;5.07;;;;;;;;;;5073941;28;20099;-71
2023/10/06 07:12:47;;;;;;;18.95;5.53;;;;;;;;;;5093598;28;20547;-71
2023/10/06 07:15:16;;;;;;;12.65;4.72;;;;;;;;;;5093807;28;20059;-70
2023/10/06 07:17:45;;;;;;;16.02;5.30;;;;;;;;;;5076093;28;20383;-71
2023/10/06 07:20:14;;;;;;;17.40;6.15;;;;;;;;;;5081899;22;20044;-71
2023/10/06 07:22:40;;;;;;;18.25;6.65;;;;;;;;;;5074612;28;20056;-71
2023/10/06 07:25:06;;;;;;;21.52;8.63;;;;;;;;;;5074438;28;20048;-71
2023/10/06 07:27:34;;;;;;;22.77;7.07;;;;;;;;;;5074222;28;20491;-71
2023/10/06 07:30:04;;;;;;;14.80;5.97;;;;;;;;;;5055806;28;20078;-71
2023/10/06 07:32:30;;;;;;;15.15;7.38;;;;;;;;;;5057068;28;20031;-71
2023/10/06 07:34:55;;;;;;;16.52;7.38;;;;;;;;;;5056095;28;20479;-71
2023/10/06 07:37:21;;;;;;;22.35;7.75;;;;;;;;;;5074379;28;20024;-71
2023/10/06 07:39:47;;;;;;;19.98;7.03;;;;;;;;;;5055537;28;20035;-70
2023/10/06 07:42:16;;;;;;;19.98;6.60;;;;;;;;;;5074075;28;20043;-70
2023/10/06 07:44:42;;;;;;;16.20;5.90;;;;;;;;;;5074325;28;20550;-71
2023/10/06 07:47:07;;;;;;;15.52;5.85;;;;;;;;;;5073561;28;20052;-71
2023/10/06 07:49:34;;;;;;;20.13;5.97;;;;;;;;;;5073698;28;20020;-71
2023/10/06 07:51:59;;;;;;;18.77;6.15;;;;;;;;;;5059796;28;20082;-70
2023/10/06 07:54:28;;;;;;;19.88;5.55;;;;;;;;;;5061426;28;20024;-71
2023/10/06 07:56:53;;;;;;;16.05;6.03;;;;;;;;;;5047634;28;20033;-71
2023/10/06 07:59:18;;;;;;;14.05;5.18;;;;;;;;;;5054082;28;20509;-71
2023/10/06 08:01:44;;;;;;;14.45;5.85;;;;;;;;;;5054088;28;20102;-71
2023/10/06 08:04:10;;;;;;;14.88;4.80;;;;;;;;;;5078224;28;20493;-71
2023/10/06 08:06:35;;;;;;;11.98;5.18;;;;;;;;;;5093938;28;20098;-71
2023/10/06 08:09:05;;;;;;;11.98;4.78;;;;;;;;;;5081174;28;20231;-71
2023/10/06 08:11:32;;;;;;;10.40;5.07;;;;;;;;;;5039687;28;20024;-71
2023/10/06 08:13:58;;;;;;;14.68;6.53;;;;;;;;;;5074275;28;20513;-71
2023/10/06 08:16:23;;;;;;;26.38;6.63;;;;;;;;;;5055882;28;20029;-71
2023/10/06 08:18:48;;;;;;;19.38;6.82;;;;;;;;;;5074638;28;20048;-71
2023/10/06 08:21:14;;;;;;;21.20;7.95;;;;;;;;;;5073376;28;20056;-71
2023/10/06 08:23:39;;;;;;;20.85;6.40;;;;;;;;;;5055037;28;20028;-71
2023/10/06 08:26:08;;;;;;;11.40;5.18;;;;;;;;;;5073432;28;20528;-71
2023/10/06 08:28:34;;;;;;;12.65;4.82;;;;;;;;;;5073592;28;20029;-71
2023/10/06 08:31:02;;;;;;;15.80;6.03;;;;;;;;;;5072559;28;20024;-71
2023/10/06 08:33:27;;;;;;;20.13;5.93;;;;;;;;;;5073266;28;20390;-71
2023/10/06 08:36:02;;;;;;;26.30;6.53;;;;;;;;;;5072800;28;20078;-71
2023/10/06 08:38:28;;;;;;;19.20;6.68;;;;;;;;;;5055381;28;20020;-71
2023/10/06 08:41:01;;;;;;;22.25;6.93;;;;;;;;;;5072468;28;20024;-71
2023/10/06 08:43:29;;;;;;;15.80;6.85;;;;;;;;;;5073492;28;20021;-72
2023/10/06 08:45:59;;;;;;;10.57;5.85;;;;;;;;;;5085585;28;20469;-71
2023/10/06 08:48:30;;;;;;;17.67;6.22;;;;;;;;;;5075939;28;20474;-71
2023/10/06 08:50:58;;;;;;;19.67;6.68;;;;;;;;;;5080668;28;20028;-71
2023/10/06 08:53:25;;;;;;;17.13;4.78;;;;;;;;;;5055195;28;20471;-71
2023/10/06 08:55:50;;;;;;;14.57;5.85;;;;;;;;;;5054344;28;20024;-71
2023/10/06 08:58:20;;;;;;;15.60;5.07;;;;;;;;;;5073032;28;20081;-71
2023/10/06 09:00:46;;;;;;;8.50;3.95;;;;;;;;;;5054553;28;20505;-71
2023/10/06 09:03:14;;;;;;;13.90;3.97;;;;;;;;;;5055115;28;20032;-71
2023/10/06 09:05:43;;;;;;;12.88;3.08;;;;;;;;;;5084467;28;20375;-71
2023/10/06 09:08:11;;;;;;;9.98;5.40;;;;;;;;;;5093514;28;20501;-71
2023/10/06 09:10:40;;;;;;;10.50;4.53;;;;;;;;;;5052983;28;20380;-71
2023/10/06 09:13:12;;;;;;;15.40;4.55;;;;;;;;;;5059096;28;20036;-71
2023/10/06 09:15:40;;;;;;;10.88;4.63;;;;;;;;;;5058712;28;20543;-71
2023/10/06 09:18:19;;;;;;;12.88;4.65;;;;;;;;;;5058561;28;20103;-71
2023/10/06 09:20:47;;;;;;;13.00;4.30;;;;;;;;;;5058529;28;20020;-71
2023/10/06 09:23:31;;;;;;;16.58;5.40;;;;;;;;;;5059203;28;20039;-71
2023/10/06 09:25:57;;;;;;;14.15;6.03;;;;;;;;;;5059099;28;20013;-71
2023/10/06 09:28:23;;;;;;;12.77;6.32;;;;;;;;;;5042255;28;20513;-71
2023/10/06 09:31:02;;;;;;;13.68;6.72;;;;;;;;;;5058630;28;20028;-71
2023/10/06 09:33:36;;;;;;;11.02;6.47;;;;;;;;;;5041981;28;20105;-71
2023/10/06 09:36:11;;;;;;;13.60;6.43;;;;;;;;;;5076520;28;20093;-71
2023/10/06 09:38:40;;;;;;;12.90;6.32;;;;;;;;;;5056595;28;20029;-71
2023/10/06 09:41:07;;;;;;;18.92;7.32;;;;;;;;;;5058749;28;20074;-71
2023/10/06 09:43:34;;;;;;;22.17;7.85;;;;;;;;;;5058764;28;20390;-71
2023/10/06 09:46:06;;;;;;;16.63;8.23;;;;;;;;;;5059494;28;20024;-71
2023/10/06 09:48:35;;;;;;;27.25;8.93;;;;;;;;;;5041123;28;20025;-71
2023/10/06 09:51:06;;;;;;;27.50;8.68;;;;;;;;;;5063197;28;20063;-71
2023/10/06 09:53:32;;;;;;;16.63;8.60;;;;;;;;;;5058683;28;20020;-71
2023/10/06 09:55:57;;;;;;;21.65;8.65;;;;;;;;;;5058332;28;20101;-71
2023/10/06 09:58:23;;;;;;;15.40;7.43;;;;;;;;;;5075554;28;20028;-71
2023/10/06 10:00:49;;;;;;;16.85;6.47;;;;;;;;;;5058251;28;20026;-71
2023/10/06 10:03:15;;;;;;;13.60;6.65;;;;;;;;;;5076120;28;20021;-71
2023/10/06 10:05:41;;;;;;;15.55;6.35;;;;;;;;;;5058461;28;20029;-71
2023/10/06 10:08:07;;;;;;;11.48;6.90;;;;;;;;;;5057582;28;20029;-71
2023/10/06 10:10:35;;;;;;;12.73;5.40;;;;;;;;;;5073195;28;20028;-71
2023/10/06 10:13:00;;;;;;;9.73;4.68;;;;;;;;;;5096086;28;20501;-71
2023/10/06 10:15:40;;;;;;;9.73;6.13;;;;;;;;;;5078331;28;20020;-71
2023/10/06 10:18:31;;;;;;;17.10;4.70;;;;;;;;;;5076879;28;20021;-71
2023/10/06 10:20:59;;;;;;;14.13;4.95;;;;;;;;;;5033656;28;20048;-70
2023/10/06 10:23:26;;;;;;;7.97;4.25;;;;;;;;;;5057854;28;20017;-70
2023/10/06 10:25:51;;;;;;;9.18;4.32;;;;;;;;;;5057640;28;20021;-71
2023/10/06 10:28:19;;;;;;;5.95;3.00;;;;;;;;;;5068053;28;20079;-69
2023/10/06 10:30:51;;;;;;;10.30;3.45;;;;;;;;;;5051631;28;20025;-70
2023/10/06 10:33:21;;;;;;;7.78;3.10;;;;;;;;;;5047878;28;20116;-70
2023/10/06 10:36:20;;;;;;;8.98;2.65;;;;;;;;;;5043524;28;20026;-70
2023/10/06 10:38:57;;;;;;;9.90;3.17;;;;;;;;;;5066147;28;20047;-72
2023/10/06 10:41:26;;;;;;;14.15;3.95;;;;;;;;;;5041490;28;20564;-72
2023/10/06 10:43:51;;;;;;;18.17;5.63;;;;;;;;;;5061723;28;20021;-72
2023/10/06 10:46:38;;;;;;;15.30;5.22;;;;;;;;;;5054962;28;20017;-71
2023/10/06 10:49:08;;;;;;;13.35;4.07;;;;;;;;;;5046768;28;20494;-71
2023/10/06 10:52:20;;;;;;;17.08;4.55;;;;;;;;;;5046470;28;20036;-72
2023/10/06 10:54:50;;;;;;;20.17;5.88;;;;;;;;;;5019670;28;20028;-72
2023/10/06 10:57:21;;;;;;;16.33;5.32;;;;;;;;;;5061927;28;20521;-70
2023/10/06 11:02:42;;;;;;;21.10;6.25;;;;;;;;;;5075113;28;20044;-71
2023/10/06 11:05:07;;;;;;;26.48;6.13;;;;;;;;;;5078552;28;20489;-71
2023/10/06 11:07:35;;;;;;;18.60;5.68;;;;;;;;;;5055733;28;20044;-71
2023/10/06 11:10:02;;;;;;;22.42;7.03;;;;;;;;;;5042381;28;20025;-72
2023/10/06 11:12:30;;;;;;;28.15;6.68;;;;;;;;;;5073505;28;20024;-71
2023/10/06 11:15:03;;;;;;;26.23;6.03;;;;;;;;;;5056055;28;20044;-71
2023/10/06 11:17:31;;;;;;;31.73;6.88;;;;;;;;;;5055188;28;20086;-71
2023/10/06 11:20:15;;;;;;;24.52;7.88;;;;;;;;;;5056017;28;20441;-71
2023/10/06 11:23:00;;;;;;;24.00;6.97;;;;;;;;;;5055026;28;20028;-71
2023/10/06 11:25:29;;;;;;;30.60;6.28;;;;;;;;;;5035667;28;20505;-71
2023/10/06 11:28:00;;;;;;;31.40;6.80;;;;;;;;;;5055163;28;20025;-71
2023/10/06 11:30:29;;;;;;;22.52;6.47;;;;;;;;;;5044526;28;20074;-70
2023/10/06 11:32:57;;;;;;;23.40;6.80;;;;;;;;;;5043116;28;20085;-71
2023/10/06 11:35:24;;;;;;;31.40;6.53;;;;;;;;;;5031447;28;20029;-70
2023/10/06 11:37:49;;;;;;;25.25;6.57;;;;;;;;;;5057755;28;20024;-71
2023/10/06 11:40:15;;;;;;;30.17;6.20;;;;;;;;;;5072694;28;20052;-71
2023/10/06 11:42:41;;;;;;;27.15;7.40;;;;;;;;;;5055175;28;20024;-71
2023/10/06 11:45:23;;;;;;;30.45;6.53;;;;;;;;;;5072487;28;20047;-71
2023/10/06 11:47:49;;;;;;;24.83;6.38;;;;;;;;;;5056282;28;20067;-71
2023/10/06 11:50:22;;;;;;;29.05;6.05;;;;;;;;;;5050394;28;20431;-70
2023/10/06 11:52:49;;;;;;;25.40;5.97;;;;;;;;;;5030637;28;20078;-71
2023/10/06 11:55:34;;;;;;;27.85;7.93;;;;;;;;;;5053967;28;20074;-71
2023/10/06 11:58:00;;;;;;;31.25;6.78;;;;;;;;;;5072178;28;20036;-69
2023/10/06 12:00:43;;;;;;;26.73;6.55;;;;;;;;;;5055024;28;20048;-71
2023/10/06 12:03:12;;;;;;;20.20;5.70;;;;;;;;;;5062400;28;20020;-71
2023/10/06 12:05:41;;;;;;;22.63;7.32;;;;;;;;;;5041768;28;20025;-71
2023/10/06 12:08:11;;;;;;;27.10;6.55;;;;;;;;;;5051773;28;20028;-71
2023/10/06 12:10:50;;;;;;;18.13;5.53;;;;;;;;;;5054668;28;20052;-70
2023/10/06 12:13:15;;;;;;;;;;;;;;;;;;5072870;28;20103;-71
2023/10/06 12:15:40;;;;;;;19.58;5.25;;;;;;;;;;5037547;28;20422;-71
2023/10/06 12:18:06;;;;;;;23.80;6.43;;;;;;;;;;5037991;28;20032;-71
2023/10/06 12:20:35;;;;;;;27.08;5.47;;;;;;;;;;5072279;28;20025;-71
2023/10/06 12:23:00;;;;;;;23.95;8.30;;;;;;;;;;5071495;28;20043;-71
2023/10/06 12:25:26;;;;;;;26.13;5.82;;;;;;;;;;5072310;28;20024;-72
2023/10/06 12:27:56;;;;;;;19.60;4.63;;;;;;;;;;5037564;28;20494;-71
2023/10/06 12:30:22;;;;;;;18.25;4.97;;;;;;;;;;5045664;28;20415;-71
2023/10/06 12:32:47;;;;;;;25.92;5.57;;;;;;;;;;5050998;28;20033;-71
2023/10/06 12:35:18;;;;;;;20.38;8.07;;;;;;;;;;5051082;28;20040;-71
2023/10/06 12:37:45;;;;;;;24.60;7.00;;;;;;;;;;5052402;28;20033;-72
2023/10/06 12:40:13;;;;;;;21.33;5.30;;;;;;;;;;5052483;28;20069;-71
2023/10/06 12:42:39;;;;;;;23.35;7.00;;;;;;;;;;5074791;28;20105;-70
2023/10/06 12:45:11;;;;;;;41.05;7.93;;;;;;;;;;5068313;28;20110;-71
2023/10/06 12:47:38;;;;;;;25.25;7.18;;;;;;;;;;5053674;28;20025;-71
2023/10/06 12:50:08;;;;;;;28.70;7.38;;;;;;;;;;5054406;28;20056;-71
2023/10/06 12:52:36;;;;;;;30.63;6.07;;;;;;;;;;5054594;28;20032;-70
2023/10/06 12:55:10;;;;;;;28.63;5.93;;;;;;;;;;5071715;28;20017;-71
2023/10/06 12:57:37;;;;;;;29.27;7.38;;;;;;;;;;5055667;28;20398;-71
2023/10/06 13:00:03;;;;;;;30.13;8.43;;;;;;;;;;5054472;28;20055;-70
2023/10/06 13:02:31;;;;;;;33.25;6.53;;;;;;;;;;5054320;28;20028;-71
2023/10/06 13:04:57;;;;;;;30.58;7.25;;;;;;;;;;5054240;28;20471;-71
2023/10/06 13:07:23;;;;;;;22.92;6.82;;;;;;;;;;5072145;28;20043;-71
2023/10/06 13:09:49;;;;;;;22.67;6.15;;;;;;;;;;5064726;28;20057;-70
2023/10/06 13:12:16;;;;;;;40.92;6.78;;;;;;;;;;5048318;28;20477;-70
2023/10/06 13:14:42;;;;;;;37.63;6.78;;;;;;;;;;5059571;28;20025;-70
2023/10/06 13:17:08;;;;;;;37.22;6.32;;;;;;;;;;5065196;28;20035;-70
2023/10/06 13:19:33;;;;;;;35.33;8.18;;;;;;;;;;5046563;28;20036;-71
2023/10/06 13:21:59;;;;;;;29.35;7.40;;;;;;;;;;5035563;28;20494;-71
2023/10/06 13:24:24;;;;;;;38.05;9.27;;;;;;;;;;5047932;28;20124;-71
2023/10/06 13:26:50;;;;;;;30.50;6.47;;;;;;;;;;5046522;28;20028;-70
2023/10/06 13:29:15;;;;;;;33.13;7.65;;;;;;;;;;5048013;28;20024;-68
2023/10/06 13:31:40;;;;;;;36.80;7.60;;;;;;;;;;5046187;28;20405;-71
2023/10/06 13:34:07;;;;;;;40.05;7.45;;;;;;;;;;5024571;28;20099;-71
2023/10/06 13:36:32;;;;;;;29.17;8.02;;;;;;;;;;5063328;28;20555;-71
2023/10/06 13:38:58;;;;;;;33.42;7.22;;;;;;;;;;5048601;28;20028;-71
2023/10/06 13:41:23;;;;;;;24.20;6.75;;;;;;;;;;5043924;28;20097;-70
2023/10/06 13:43:49;;;;;;;28.60;7.75;;;;;;;;;;5058058;28;20067;-71
2023/10/06 13:46:17;;;;;;;33.80;6.57;;;;;;;;;;5045041;28;20465;-70
2023/10/06 13:48:42;;;;;;;35.72;6.80;;;;;;;;;;5064673;28;20112;-70
2023/10/06 13:51:09;;;;;;;28.92;8.00;;;;;;;;;;5043524;28;20162;-71
2023/10/06 13:53:36;;;;;;;40.72;8.27;;;;;;;;;;5066596;28;20052;-70
2023/10/06 13:56:02;;;;;;;29.90;7.35;;;;;;;;;;5048211;28;20027;-68
2023/10/06 13:58:27;;;;;;;38.83;7.53;;;;;;;;;;5055207;28;20482;-67
2023/10/06 14:00:55;;;;;;;38.20;7.22;;;;;;;;;;5074484;28;20035;-69
2023/10/06 14:03:22;;;;;;;41.50;10.57;;;;;;;;;;5073988;28;20046;-68
2023/10/06 14:05:52;;;;;;;31.20;7.90;;;;;;;;;;5056863;28;20131;-70
2023/10/06 14:08:18;;;;;;;30.98;7.50;;;;;;;;;;5074573;28;20079;-67
2023/10/06 14:10:45;;;;;;;26.77;6.97;;;;;;;;;;5074280;28;20036;-70
2023/10/06 14:15:44;;;;;;;37.58;7.25;;;;;;;;;;5057744;28;20559;-71
2023/10/06 14:18:13;;;;;;;;;;;;;;;;;;5057263;28;20032;-70
2023/10/06 14:20:40;;;;;;;27.67;9.75;;;;;;;;;;5074000;28;19919;-71
2023/10/06 14:23:11;;;;;;;19.17;5.97;;;;;;;;;;5074690;28;20052;-70
2023/10/06 14:25:36;;;;;;;27.98;6.53;;;;;;;;;;5057597;28;20028;-71
2023/10/06 14:28:02;;;;;;;23.67;6.93;;;;;;;;;;5057026;28;20020;-71
2023/10/06 14:30:29;;;;;;;18.65;5.70;;;;;;;;;;5074179;28;20135;-70
2023/10/06 14:33:07;;;;;;;20.25;7.85;;;;;;;;;;5074723;28;20032;-70
2023/10/06 14:35:52;;;;;;;21.38;6.55;;;;;;;;;;5056849;28;20016;-71
2023/10/06 14:46:38;;;;;;;22.05;6.07;;;;;;;;;;5054620;28;20036;-70
2023/10/06 14:49:05;;;;;;;38.30;7.43;;;;;;;;;;5055457;28;20079;-70
2023/10/06 14:51:31;;;;;;;32.15;6.70;;;;;;;;;;5037042;28;20376;-68
2023/10/06 14:53:59;;;;;;;36.17;8.73;;;;;;;;;;5055558;28;20036;-70
2023/10/06 14:56:26;;;;;;;25.42;6.70;;;;;;;;;;5055327;28;20081;-70
2023/10/06 14:58:51;;;;;;;31.13;7.95;;;;;;;;;;5056045;28;20032;-70
2023/10/06 15:01:17;;;;;;;32.30;10.65;;;;;;;;;;5055476;28;20028;-70